sensor_id;sensor_type;location;lat;lon;timestamp;P1;durP1;ratioP1;P2;durP2;ratioP2
1507;SDS011;745;48.586;10.032;2023-07-31T00:01:14;4.13;;;2.43;;
1507;SDS011;745;48.586;10.032;2023-07-31T00:03:14;2.57;;;2.20;;
1507;SDS011;745;48.586;10.032;2023-07-31T00:05:15;3.03;;;2.73;;
1507;SDS011;745;48.586;10.032;2023-07-31T00:07:15;3.10;;;2.23;;
1507;SDS011;745;48.586;10.032;2023-07-31T00:09:16;2.50;;;2.30;;
1507;SDS011;745;48.586;10.032;2023-07-31T00:11:16;2.90;;;2.20;;
1507;SDS011;745;48.586;10.032;2023-07-31T00:13:16;4.40;;;2.60;;
1507;SDS011;745;48.586;10.032;2023-07-31T00:15:17;3.83;;;2.60;;
1507;SDS011;745;48.586;10.032;2023-07-31T00:17:17;2.80;;;2.50;;
1507;SDS011;745;48.586;10.032;2023-07-31T00:19:18;4.57;;;2.40;;
1507;SDS011;745;48.586;10.032;2023-07-31T00:21:18;3.93;;;2.40;;
1507;SDS011;745;48.586;10.032;2023-07-31T00:23:18;3.47;;;2.43;;
1507;SDS011;745;48.586;10.032;2023-07-31T00:25:19;7.03;;;2.60;;
1507;SDS011;745;48.586;10.032;2023-07-31T00:27:19;5.33;;;2.40;;
1507;SDS011;745;48.586;10.032;2023-07-31T00:29:19;4.23;;;2.40;;
1507;SDS011;745;48.586;10.032;2023-07-31T00:31:20;3.03;;;2.30;;
1507;SDS011;745;48.586;10.032;2023-07-31T00:33:20;4.13;;;2.40;;
1507;SDS011;745;48.586;10.032;2023-07-31T00:35:20;4.53;;;2.50;;
1507;SDS011;745;48.586;10.032;2023-07-31T00:37:21;7.90;;;3.17;;
1507;SDS011;745;48.586;10.032;2023-07-31T00:39:21;4.10;;;2.27;;
1507;SDS011;745;48.586;10.032;2023-07-31T00:41:21;3.83;;;2.50;;
1507;SDS011;745;48.586;10.032;2023-07-31T00:43:22;4.10;;;2.60;;
1507;SDS011;745;48.586;10.032;2023-07-31T00:45:22;2.20;;;2.00;;
1507;SDS011;745;48.586;10.032;2023-07-31T00:47:23;3.03;;;2.50;;
1507;SDS011;745;48.586;10.032;2023-07-31T00:49:24;6.23;;;3.00;;
1507;SDS011;745;48.586;10.032;2023-07-31T00:51:24;2.77;;;2.47;;
1507;SDS011;745;48.586;10.032;2023-07-31T00:53:24;7.50;;;3.03;;
1507;SDS011;745;48.586;10.032;2023-07-31T00:55:25;2.60;;;2.30;;
1507;SDS011;745;48.586;10.032;2023-07-31T00:57:25;3.40;;;2.60;;
1507;SDS011;745;48.586;10.032;2023-07-31T00:59:26;4.50;;;2.93;;
1507;SDS011;745;48.586;10.032;2023-07-31T01:01:27;3.30;;;2.27;;
1507;SDS011;745;48.586;10.032;2023-07-31T01:03:27;3.20;;;2.55;;
1507;SDS011;745;48.586;10.032;2023-07-31T01:05:31;2.70;;;2.03;;
1507;SDS011;745;48.586;10.032;2023-07-31T01:10:04;3.83;;;2.85;;
1507;SDS011;745;48.586;10.032;2023-07-31T01:12:09;2.70;;;2.25;;
1507;SDS011;745;48.586;10.032;2023-07-31T01:14:14;5.18;;;2.75;;
1507;SDS011;745;48.586;10.032;2023-07-31T01:16:14;3.20;;;2.63;;
1507;SDS011;745;48.586;10.032;2023-07-31T01:18:15;2.60;;;2.40;;
1507;SDS011;745;48.586;10.032;2023-07-31T01:20:22;3.57;;;2.77;;
1507;SDS011;745;48.586;10.032;2023-07-31T01:27:15;2.80;;;2.60;;
1507;SDS011;745;48.586;10.032;2023-07-31T01:29:26;2.72;;;2.40;;
1507;SDS011;745;48.586;10.032;2023-07-31T01:31:32;2.80;;;2.42;;
1507;SDS011;745;48.586;10.032;2023-07-31T01:33:33;4.20;;;2.60;;
1507;SDS011;745;48.586;10.032;2023-07-31T01:35:35;3.78;;;2.67;;
1507;SDS011;745;48.586;10.032;2023-07-31T01:37:36;2.88;;;2.20;;
1507;SDS011;745;48.586;10.032;2023-07-31T01:39:36;3.30;;;2.43;;
1507;SDS011;745;48.586;10.032;2023-07-31T01:41:36;4.73;;;2.23;;
1507;SDS011;745;48.586;10.032;2023-07-31T01:43:37;3.70;;;2.17;;
1507;SDS011;745;48.586;10.032;2023-07-31T01:45:37;2.97;;;2.10;;
1507;SDS011;745;48.586;10.032;2023-07-31T01:47:37;3.37;;;2.60;;
1507;SDS011;745;48.586;10.032;2023-07-31T01:49:38;3.33;;;2.70;;
1507;SDS011;745;48.586;10.032;2023-07-31T01:51:38;3.10;;;2.10;;
1507;SDS011;745;48.586;10.032;2023-07-31T01:53:38;5.37;;;2.90;;
1507;SDS011;745;48.586;10.032;2023-07-31T01:55:39;6.53;;;2.70;;
1507;SDS011;745;48.586;10.032;2023-07-31T01:57:39;4.60;;;2.60;;
1507;SDS011;745;48.586;10.032;2023-07-31T01:59:40;5.10;;;2.67;;
1507;SDS011;745;48.586;10.032;2023-07-31T02:01:43;2.87;;;2.17;;
1507;SDS011;745;48.586;10.032;2023-07-31T02:03:43;3.08;;;2.58;;
1507;SDS011;745;48.586;10.032;2023-07-31T02:05:44;4.03;;;2.27;;
1507;SDS011;745;48.586;10.032;2023-07-31T02:07:45;4.60;;;2.17;;
1507;SDS011;745;48.586;10.032;2023-07-31T02:09:46;3.80;;;2.33;;
1507;SDS011;745;48.586;10.032;2023-07-31T02:11:47;2.05;;;1.85;;
1507;SDS011;745;48.586;10.032;2023-07-31T02:13:48;4.13;;;2.93;;
1507;SDS011;745;48.586;10.032;2023-07-31T02:15:48;3.60;;;2.63;;
1507;SDS011;745;48.586;10.032;2023-07-31T02:17:49;5.07;;;2.53;;
1507;SDS011;745;48.586;10.032;2023-07-31T02:19:49;4.73;;;2.53;;
1507;SDS011;745;48.586;10.032;2023-07-31T02:21:49;4.73;;;2.70;;
1507;SDS011;745;48.586;10.032;2023-07-31T02:23:50;2.63;;;2.30;;
1507;SDS011;745;48.586;10.032;2023-07-31T02:25:50;2.50;;;2.30;;
1507;SDS011;745;48.586;10.032;2023-07-31T02:27:51;4.40;;;2.43;;
1507;SDS011;745;48.586;10.032;2023-07-31T02:29:51;3.30;;;2.50;;
1507;SDS011;745;48.586;10.032;2023-07-31T02:31:51;3.93;;;2.47;;
1507;SDS011;745;48.586;10.032;2023-07-31T02:33:52;5.83;;;2.60;;
1507;SDS011;745;48.586;10.032;2023-07-31T02:35:52;3.10;;;2.40;;
1507;SDS011;745;48.586;10.032;2023-07-31T02:37:52;3.13;;;2.60;;
1507;SDS011;745;48.586;10.032;2023-07-31T02:39:53;3.33;;;2.70;;
1507;SDS011;745;48.586;10.032;2023-07-31T02:41:53;2.87;;;2.30;;
1507;SDS011;745;48.586;10.032;2023-07-31T02:43:53;4.50;;;2.43;;
1507;SDS011;745;48.586;10.032;2023-07-31T02:45:54;3.47;;;2.70;;
1507;SDS011;745;48.586;10.032;2023-07-31T02:47:54;4.33;;;2.53;;
1507;SDS011;745;48.586;10.032;2023-07-31T02:49:54;6.47;;;2.50;;
1507;SDS011;745;48.586;10.032;2023-07-31T02:51:56;5.43;;;2.33;;
1507;SDS011;745;48.586;10.032;2023-07-31T02:53:56;6.67;;;2.50;;
1507;SDS011;745;48.586;10.032;2023-07-31T02:55:56;2.97;;;2.33;;
1507;SDS011;745;48.586;10.032;2023-07-31T02:57:57;3.23;;;2.50;;
1507;SDS011;745;48.586;10.032;2023-07-31T02:59:58;3.72;;;2.53;;
1507;SDS011;745;48.586;10.032;2023-07-31T03:01:58;2.43;;;2.23;;
1507;SDS011;745;48.586;10.032;2023-07-31T03:03:58;4.57;;;2.40;;
1507;SDS011;745;48.586;10.032;2023-07-31T03:05:59;3.73;;;2.17;;
1507;SDS011;745;48.586;10.032;2023-07-31T03:07:59;4.40;;;2.40;;
1507;SDS011;745;48.586;10.032;2023-07-31T03:10:00;3.23;;;2.53;;
1507;SDS011;745;48.586;10.032;2023-07-31T03:12:00;3.00;;;2.50;;
1507;SDS011;745;48.586;10.032;2023-07-31T03:14:00;2.83;;;2.40;;
1507;SDS011;745;48.586;10.032;2023-07-31T03:16:01;2.90;;;2.60;;
1507;SDS011;745;48.586;10.032;2023-07-31T03:18:01;4.80;;;2.43;;
1507;SDS011;745;48.586;10.032;2023-07-31T03:20:01;6.10;;;2.57;;
1507;SDS011;745;48.586;10.032;2023-07-31T03:22:02;5.40;;;2.73;;
1507;SDS011;745;48.586;10.032;2023-07-31T03:24:02;2.40;;;2.20;;
1507;SDS011;745;48.586;10.032;2023-07-31T03:26:05;3.30;;;2.67;;
1507;SDS011;745;48.586;10.032;2023-07-31T03:28:07;4.35;;;2.63;;
1507;SDS011;745;48.586;10.032;2023-07-31T03:30:07;5.87;;;2.70;;
1507;SDS011;745;48.586;10.032;2023-07-31T03:32:07;3.33;;;2.60;;
1507;SDS011;745;48.586;10.032;2023-07-31T03:34:08;2.60;;;2.27;;
1507;SDS011;745;48.586;10.032;2023-07-31T03:36:08;3.23;;;2.50;;
1507;SDS011;745;48.586;10.032;2023-07-31T03:38:08;4.47;;;2.57;;
1507;SDS011;745;48.586;10.032;2023-07-31T03:40:09;4.03;;;2.50;;
1507;SDS011;745;48.586;10.032;2023-07-31T03:42:10;2.57;;;2.37;;
1507;SDS011;745;48.586;10.032;2023-07-31T03:44:10;3.87;;;2.43;;
1507;SDS011;745;48.586;10.032;2023-07-31T03:46:10;3.50;;;2.50;;
1507;SDS011;745;48.586;10.032;2023-07-31T03:48:11;5.30;;;2.13;;
1507;SDS011;745;48.586;10.032;2023-07-31T03:50:11;3.70;;;2.77;;
1507;SDS011;745;48.586;10.032;2023-07-31T03:52:11;3.90;;;2.40;;
1507;SDS011;745;48.586;10.032;2023-07-31T03:54:12;5.27;;;2.63;;
1507;SDS011;745;48.586;10.032;2023-07-31T03:56:13;2.85;;;2.00;;
1507;SDS011;745;48.586;10.032;2023-07-31T03:58:13;5.40;;;2.50;;
1507;SDS011;745;48.586;10.032;2023-07-31T04:00:14;3.83;;;2.50;;
1507;SDS011;745;48.586;10.032;2023-07-31T04:02:14;3.50;;;2.60;;
1507;SDS011;745;48.586;10.032;2023-07-31T04:04:14;5.33;;;2.87;;
1507;SDS011;745;48.586;10.032;2023-07-31T04:06:15;3.10;;;2.80;;
1507;SDS011;745;48.586;10.032;2023-07-31T04:08:18;4.47;;;2.38;;
1507;SDS011;745;48.586;10.032;2023-07-31T04:10:18;4.47;;;2.63;;
1507;SDS011;745;48.586;10.032;2023-07-31T04:12:18;3.03;;;2.23;;
1507;SDS011;745;48.586;10.032;2023-07-31T04:14:19;4.37;;;2.77;;
1507;SDS011;745;48.586;10.032;2023-07-31T04:16:19;3.20;;;2.23;;
1507;SDS011;745;48.586;10.032;2023-07-31T04:18:19;4.63;;;2.53;;
1507;SDS011;745;48.586;10.032;2023-07-31T04:20:20;3.20;;;2.60;;
1507;SDS011;745;48.586;10.032;2023-07-31T04:22:20;3.77;;;3.00;;
1507;SDS011;745;48.586;10.032;2023-07-31T04:24:21;3.13;;;2.80;;
1507;SDS011;745;48.586;10.032;2023-07-31T04:26:24;4.10;;;2.70;;
1507;SDS011;745;48.586;10.032;2023-07-31T04:28:24;5.57;;;2.87;;
1507;SDS011;745;48.586;10.032;2023-07-31T04:30:26;3.35;;;2.50;;
1507;SDS011;745;48.586;10.032;2023-07-31T04:32:26;4.30;;;2.50;;
1507;SDS011;745;48.586;10.032;2023-07-31T04:34:27;2.53;;;2.33;;
1507;SDS011;745;48.586;10.032;2023-07-31T04:36:27;3.70;;;2.43;;
1507;SDS011;745;48.586;10.032;2023-07-31T04:38:27;3.00;;;2.47;;
1507;SDS011;745;48.586;10.032;2023-07-31T04:40:28;2.80;;;2.50;;
1507;SDS011;745;48.586;10.032;2023-07-31T04:42:28;3.37;;;2.80;;
1507;SDS011;745;48.586;10.032;2023-07-31T04:44:28;3.47;;;2.60;;
1507;SDS011;745;48.586;10.032;2023-07-31T04:46:29;4.27;;;2.90;;
1507;SDS011;745;48.586;10.032;2023-07-31T04:48:30;2.90;;;2.47;;
1507;SDS011;745;48.586;10.032;2023-07-31T04:50:30;5.03;;;3.17;;
1507;SDS011;745;48.586;10.032;2023-07-31T04:52:31;2.70;;;2.23;;
1507;SDS011;745;48.586;10.032;2023-07-31T04:54:31;3.30;;;2.35;;
1507;SDS011;745;48.586;10.032;2023-07-31T04:56:31;2.50;;;2.30;;
1507;SDS011;745;48.586;10.032;2023-07-31T04:58:32;4.10;;;2.40;;
1507;SDS011;745;48.586;10.032;2023-07-31T05:00:32;3.50;;;2.30;;
1507;SDS011;745;48.586;10.032;2023-07-31T05:02:32;4.77;;;2.53;;
1507;SDS011;745;48.586;10.032;2023-07-31T05:04:33;4.17;;;2.77;;
1507;SDS011;745;48.586;10.032;2023-07-31T05:06:33;4.53;;;2.40;;
1507;SDS011;745;48.586;10.032;2023-07-31T05:08:33;3.53;;;2.23;;
1507;SDS011;745;48.586;10.032;2023-07-31T05:10:34;2.50;;;2.20;;
1507;SDS011;745;48.586;10.032;2023-07-31T05:12:34;2.90;;;2.27;;
1507;SDS011;745;48.586;10.032;2023-07-31T05:14:34;3.70;;;2.60;;
1507;SDS011;745;48.586;10.032;2023-07-31T05:16:35;2.90;;;2.23;;
1507;SDS011;745;48.586;10.032;2023-07-31T05:18:35;3.27;;;2.50;;
1507;SDS011;745;48.586;10.032;2023-07-31T05:20:35;3.10;;;2.40;;
1507;SDS011;745;48.586;10.032;2023-07-31T05:22:36;3.40;;;2.73;;
1507;SDS011;745;48.586;10.032;2023-07-31T05:24:36;2.60;;;2.10;;
1507;SDS011;745;48.586;10.032;2023-07-31T05:26:36;4.57;;;2.60;;
1507;SDS011;745;48.586;10.032;2023-07-31T05:28:37;4.13;;;2.40;;
1507;SDS011;745;48.586;10.032;2023-07-31T05:30:38;3.80;;;2.47;;
1507;SDS011;745;48.586;10.032;2023-07-31T05:32:38;3.37;;;2.67;;
1507;SDS011;745;48.586;10.032;2023-07-31T05:34:38;2.40;;;2.20;;
1507;SDS011;745;48.586;10.032;2023-07-31T05:36:39;4.87;;;3.10;;
1507;SDS011;745;48.586;10.032;2023-07-31T05:38:39;2.80;;;2.30;;
1507;SDS011;745;48.586;10.032;2023-07-31T05:40:39;3.70;;;2.33;;
1507;SDS011;745;48.586;10.032;2023-07-31T05:42:40;4.63;;;2.70;;
1507;SDS011;745;48.586;10.032;2023-07-31T05:44:40;3.00;;;2.70;;
1507;SDS011;745;48.586;10.032;2023-07-31T05:46:40;3.63;;;2.77;;
1507;SDS011;745;48.586;10.032;2023-07-31T05:48:41;3.73;;;2.40;;
1507;SDS011;745;48.586;10.032;2023-07-31T05:50:42;3.93;;;2.67;;
1507;SDS011;745;48.586;10.032;2023-07-31T05:52:43;5.45;;;2.80;;
1507;SDS011;745;48.586;10.032;2023-07-31T05:54:43;2.90;;;2.43;;
1507;SDS011;745;48.586;10.032;2023-07-31T05:56:45;2.85;;;2.55;;
1507;SDS011;745;48.586;10.032;2023-07-31T05:58:46;2.80;;;2.60;;
1507;SDS011;745;48.586;10.032;2023-07-31T06:00:46;5.10;;;3.17;;
1507;SDS011;745;48.586;10.032;2023-07-31T06:02:47;3.20;;;2.70;;
1507;SDS011;745;48.586;10.032;2023-07-31T06:04:48;2.83;;;2.63;;
1507;SDS011;745;48.586;10.032;2023-07-31T06:06:48;6.53;;;2.80;;
1507;SDS011;745;48.586;10.032;2023-07-31T06:08:48;10.23;;;5.43;;
1507;SDS011;745;48.586;10.032;2023-07-31T06:10:49;7.88;;;6.97;;
1507;SDS011;745;48.586;10.032;2023-07-31T06:12:50;5.67;;;4.90;;
1507;SDS011;745;48.586;10.032;2023-07-31T06:14:50;3.77;;;3.37;;
1507;SDS011;745;48.586;10.032;2023-07-31T06:16:51;4.70;;;3.47;;
1507;SDS011;745;48.586;10.032;2023-07-31T06:18:51;3.13;;;2.40;;
1507;SDS011;745;48.586;10.032;2023-07-31T06:20:51;6.23;;;2.33;;
1507;SDS011;745;48.586;10.032;2023-07-31T06:22:53;4.28;;;2.50;;
1507;SDS011;745;48.586;10.032;2023-07-31T06:24:53;4.80;;;2.77;;
1507;SDS011;745;48.586;10.032;2023-07-31T06:26:54;5.17;;;2.73;;
1507;SDS011;745;48.586;10.032;2023-07-31T06:28:54;3.93;;;2.57;;
1507;SDS011;745;48.586;10.032;2023-07-31T06:30:55;2.70;;;1.90;;
1507;SDS011;745;48.586;10.032;2023-07-31T06:32:55;5.13;;;3.03;;
1507;SDS011;745;48.586;10.032;2023-07-31T06:34:56;2.50;;;2.17;;
1507;SDS011;745;48.586;10.032;2023-07-31T06:36:56;4.87;;;3.10;;
1507;SDS011;745;48.586;10.032;2023-07-31T06:38:56;3.27;;;2.10;;
1507;SDS011;745;48.586;10.032;2023-07-31T06:40:57;3.30;;;2.10;;
1507;SDS011;745;48.586;10.032;2023-07-31T06:42:57;3.40;;;2.90;;
1507;SDS011;745;48.586;10.032;2023-07-31T06:44:57;3.43;;;2.40;;
1507;SDS011;745;48.586;10.032;2023-07-31T06:46:58;4.07;;;2.73;;
1507;SDS011;745;48.586;10.032;2023-07-31T06:48:58;2.40;;;2.17;;
1507;SDS011;745;48.586;10.032;2023-07-31T06:50:58;3.30;;;2.47;;
1507;SDS011;745;48.586;10.032;2023-07-31T06:52:59;3.50;;;2.53;;
1507;SDS011;745;48.586;10.032;2023-07-31T06:55:03;4.83;;;2.60;;
1507;SDS011;745;48.586;10.032;2023-07-31T06:57:09;4.82;;;2.80;;
1507;SDS011;745;48.586;10.032;2023-07-31T06:59:09;4.57;;;2.90;;
1507;SDS011;745;48.586;10.032;2023-07-31T07:01:09;2.77;;;2.10;;
1507;SDS011;745;48.586;10.032;2023-07-31T07:03:09;4.03;;;2.37;;
1507;SDS011;745;48.586;10.032;2023-07-31T07:05:10;3.20;;;2.50;;
1507;SDS011;745;48.586;10.032;2023-07-31T07:07:10;3.40;;;2.33;;
1507;SDS011;745;48.586;10.032;2023-07-31T07:09:10;3.93;;;2.43;;
1507;SDS011;745;48.586;10.032;2023-07-31T07:11:11;4.97;;;3.43;;
1507;SDS011;745;48.586;10.032;2023-07-31T07:13:11;2.90;;;2.53;;
1507;SDS011;745;48.586;10.032;2023-07-31T07:15:12;5.63;;;2.90;;
1507;SDS011;745;48.586;10.032;2023-07-31T07:17:13;5.40;;;2.50;;
1507;SDS011;745;48.586;10.032;2023-07-31T07:19:13;3.73;;;2.70;;
1507;SDS011;745;48.586;10.032;2023-07-31T07:21:13;4.40;;;2.57;;
1507;SDS011;745;48.586;10.032;2023-07-31T07:23:15;4.57;;;2.70;;
1507;SDS011;745;48.586;10.032;2023-07-31T07:25:16;2.93;;;2.40;;
1507;SDS011;745;48.586;10.032;2023-07-31T07:27:16;2.93;;;2.40;;
1507;SDS011;745;48.586;10.032;2023-07-31T07:29:16;3.87;;;2.70;;
1507;SDS011;745;48.586;10.032;2023-07-31T07:31:17;5.70;;;2.90;;
1507;SDS011;745;48.586;10.032;2023-07-31T07:33:17;3.00;;;2.67;;
1507;SDS011;745;48.586;10.032;2023-07-31T07:35:17;3.40;;;2.83;;
1507;SDS011;745;48.586;10.032;2023-07-31T07:37:18;2.60;;;2.20;;
1507;SDS011;745;48.586;10.032;2023-07-31T07:39:18;3.10;;;2.50;;
1507;SDS011;745;48.586;10.032;2023-07-31T07:41:18;4.30;;;2.70;;
1507;SDS011;745;48.586;10.032;2023-07-31T07:43:19;3.30;;;2.17;;
1507;SDS011;745;48.586;10.032;2023-07-31T07:45:19;3.13;;;2.83;;
1507;SDS011;745;48.586;10.032;2023-07-31T07:47:19;6.93;;;3.13;;
1507;SDS011;745;48.586;10.032;2023-07-31T07:49:19;3.77;;;2.50;;
1507;SDS011;745;48.586;10.032;2023-07-31T07:51:22;4.07;;;2.80;;
1507;SDS011;745;48.586;10.032;2023-07-31T07:53:22;3.30;;;2.73;;
1507;SDS011;745;48.586;10.032;2023-07-31T07:55:23;9.30;;;2.93;;
1507;SDS011;745;48.586;10.032;2023-07-31T07:57:23;3.83;;;2.50;;
1507;SDS011;745;48.586;10.032;2023-07-31T07:59:23;5.10;;;2.70;;
1507;SDS011;745;48.586;10.032;2023-07-31T08:01:24;3.70;;;2.70;;
1507;SDS011;745;48.586;10.032;2023-07-31T08:03:24;3.87;;;2.30;;
1507;SDS011;745;48.586;10.032;2023-07-31T08:05:24;4.77;;;2.63;;
1507;SDS011;745;48.586;10.032;2023-07-31T08:07:25;2.90;;;2.70;;
1507;SDS011;745;48.586;10.032;2023-07-31T08:09:25;4.10;;;2.70;;
1507;SDS011;745;48.586;10.032;2023-07-31T08:11:26;4.07;;;2.77;;
1507;SDS011;745;48.586;10.032;2023-07-31T08:13:26;2.70;;;2.50;;
1507;SDS011;745;48.586;10.032;2023-07-31T08:15:26;4.17;;;2.50;;
1507;SDS011;745;48.586;10.032;2023-07-31T08:17:27;2.80;;;2.50;;
1507;SDS011;745;48.586;10.032;2023-07-31T08:19:27;4.53;;;2.70;;
1507;SDS011;745;48.586;10.032;2023-07-31T08:21:27;3.77;;;2.67;;
1507;SDS011;745;48.586;10.032;2023-07-31T08:23:28;3.67;;;2.73;;
1507;SDS011;745;48.586;10.032;2023-07-31T08:25:28;9.80;;;3.90;;
1507;SDS011;745;48.586;10.032;2023-07-31T08:27:28;4.40;;;3.10;;
1507;SDS011;745;48.586;10.032;2023-07-31T08:29:29;4.40;;;2.63;;
1507;SDS011;745;48.586;10.032;2023-07-31T08:31:29;5.60;;;2.80;;
1507;SDS011;745;48.586;10.032;2023-07-31T08:33:29;3.03;;;2.73;;
1507;SDS011;745;48.586;10.032;2023-07-31T08:35:30;7.47;;;2.80;;
1507;SDS011;745;48.586;10.032;2023-07-31T08:37:30;5.53;;;2.83;;
1507;SDS011;745;48.586;10.032;2023-07-31T08:39:31;2.90;;;2.60;;
1507;SDS011;745;48.586;10.032;2023-07-31T08:41:31;3.97;;;2.77;;
1507;SDS011;745;48.586;10.032;2023-07-31T08:43:31;8.03;;;2.77;;
1507;SDS011;745;48.586;10.032;2023-07-31T08:45:32;4.73;;;2.87;;
1507;SDS011;745;48.586;10.032;2023-07-31T08:47:32;3.87;;;2.77;;
1507;SDS011;745;48.586;10.032;2023-07-31T08:49:33;6.87;;;2.70;;
1507;SDS011;745;48.586;10.032;2023-07-31T08:51:34;5.67;;;2.90;;
1507;SDS011;745;48.586;10.032;2023-07-31T08:53:35;5.13;;;2.83;;
1507;SDS011;745;48.586;10.032;2023-07-31T08:55:36;4.10;;;3.20;;
1507;SDS011;745;48.586;10.032;2023-07-31T08:57:37;5.33;;;3.07;;
1507;SDS011;745;48.586;10.032;2023-07-31T08:59:38;6.30;;;3.00;;
1507;SDS011;745;48.586;10.032;2023-07-31T09:01:41;4.77;;;2.70;;
1507;SDS011;745;48.586;10.032;2023-07-31T09:03:44;9.43;;;3.33;;
1507;SDS011;745;48.586;10.032;2023-07-31T09:05:45;3.57;;;3.20;;
1507;SDS011;745;48.586;10.032;2023-07-31T09:07:47;4.20;;;3.20;;
1507;SDS011;745;48.586;10.032;2023-07-31T09:09:47;5.30;;;3.20;;
1507;SDS011;745;48.586;10.032;2023-07-31T09:11:49;5.17;;;3.17;;
1507;SDS011;745;48.586;10.032;2023-07-31T09:13:49;3.70;;;3.20;;
1507;SDS011;745;48.586;10.032;2023-07-31T09:15:50;4.60;;;2.57;;
1507;SDS011;745;48.586;10.032;2023-07-31T09:17:58;4.47;;;3.03;;
1507;SDS011;745;48.586;10.032;2023-07-31T09:20:13;3.27;;;2.73;;
1507;SDS011;745;48.586;10.032;2023-07-31T09:22:30;4.60;;;2.80;;
1507;SDS011;745;48.586;10.032;2023-07-31T09:24:34;6.40;;;3.20;;
1507;SDS011;745;48.586;10.032;2023-07-31T09:26:35;4.77;;;3.00;;
1507;SDS011;745;48.586;10.032;2023-07-31T09:28:36;4.70;;;3.00;;
1507;SDS011;745;48.586;10.032;2023-07-31T09:30:50;6.43;;;2.83;;
1507;SDS011;745;48.586;10.032;2023-07-31T09:32:51;4.87;;;3.20;;
1507;SDS011;745;48.586;10.032;2023-07-31T09:35:05;9.97;;;3.60;;
1507;SDS011;745;48.586;10.032;2023-07-31T09:37:13;6.93;;;2.87;;
1507;SDS011;745;48.586;10.032;2023-07-31T09:39:14;4.90;;;3.20;;
1507;SDS011;745;48.586;10.032;2023-07-31T09:41:16;4.60;;;3.20;;
1507;SDS011;745;48.586;10.032;2023-07-31T09:43:17;4.90;;;2.83;;
1507;SDS011;745;48.586;10.032;2023-07-31T09:45:21;5.07;;;2.90;;
1507;SDS011;745;48.586;10.032;2023-07-31T09:47:21;3.33;;;2.77;;
1507;SDS011;745;48.586;10.032;2023-07-31T09:49:25;8.13;;;2.80;;
1507;SDS011;745;48.586;10.032;2023-07-31T09:51:26;4.63;;;2.90;;
1507;SDS011;745;48.586;10.032;2023-07-31T09:53:30;3.00;;;2.43;;
1507;SDS011;745;48.586;10.032;2023-07-31T09:55:30;4.83;;;2.63;;
1507;SDS011;745;48.586;10.032;2023-07-31T09:57:34;4.40;;;3.00;;
1507;SDS011;745;48.586;10.032;2023-07-31T09:59:42;4.03;;;3.03;;
1507;SDS011;745;48.586;10.032;2023-07-31T10:01:43;9.67;;;2.83;;
1507;SDS011;745;48.586;10.032;2023-07-31T10:03:46;4.50;;;2.60;;
1507;SDS011;745;48.586;10.032;2023-07-31T10:05:49;4.87;;;2.70;;
1507;SDS011;745;48.586;10.032;2023-07-31T10:07:54;4.70;;;3.27;;
1507;SDS011;745;48.586;10.032;2023-07-31T10:09:55;2.93;;;2.57;;
1507;SDS011;745;48.586;10.032;2023-07-31T10:12:00;6.53;;;3.00;;
1507;SDS011;745;48.586;10.032;2023-07-31T10:14:03;4.13;;;3.10;;
1507;SDS011;745;48.586;10.032;2023-07-31T10:16:04;2.60;;;2.40;;
1507;SDS011;745;48.586;10.032;2023-07-31T10:18:05;6.93;;;3.67;;
1507;SDS011;745;48.586;10.032;2023-07-31T10:20:06;3.93;;;2.60;;
1507;SDS011;745;48.586;10.032;2023-07-31T10:22:07;5.40;;;3.03;;
1507;SDS011;745;48.586;10.032;2023-07-31T10:24:08;3.10;;;2.70;;
1507;SDS011;745;48.586;10.032;2023-07-31T10:26:09;4.50;;;3.37;;
1507;SDS011;745;48.586;10.032;2023-07-31T10:28:10;6.53;;;3.23;;
1507;SDS011;745;48.586;10.032;2023-07-31T10:30:12;3.10;;;2.80;;
1507;SDS011;745;48.586;10.032;2023-07-31T10:32:16;3.90;;;3.13;;
1507;SDS011;745;48.586;10.032;2023-07-31T10:34:17;3.90;;;3.20;;
1507;SDS011;745;48.586;10.032;2023-07-31T10:36:18;4.93;;;3.30;;
1507;SDS011;745;48.586;10.032;2023-07-31T10:38:19;5.20;;;4.70;;
1507;SDS011;745;48.586;10.032;2023-07-31T10:40:24;14.63;;;13.33;;
1507;SDS011;745;48.586;10.032;2023-07-31T10:42:29;16.20;;;14.50;;
1507;SDS011;745;48.586;10.032;2023-07-31T10:44:37;15.40;;;14.00;;
1507;SDS011;745;48.586;10.032;2023-07-31T10:46:37;38.83;;;35.50;;
1507;SDS011;745;48.586;10.032;2023-07-31T10:48:38;24.10;;;17.00;;
1507;SDS011;745;48.586;10.032;2023-07-31T10:50:48;8.97;;;5.20;;
1507;SDS011;745;48.586;10.032;2023-07-31T10:52:52;3.30;;;2.30;;
1507;SDS011;745;48.586;10.032;2023-07-31T10:55:13;4.40;;;2.87;;
1507;SDS011;745;48.586;10.032;2023-07-31T10:57:24;2.93;;;2.40;;
1507;SDS011;745;48.586;10.032;2023-07-31T10:59:32;5.83;;;3.40;;
1507;SDS011;745;48.586;10.032;2023-07-31T11:01:53;3.10;;;2.70;;
1507;SDS011;745;48.586;10.032;2023-07-31T11:03:57;4.80;;;2.90;;
1507;SDS011;745;48.586;10.032;2023-07-31T11:06:03;2.83;;;2.47;;
1507;SDS011;745;48.586;10.032;2023-07-31T11:08:09;6.60;;;2.70;;
1507;SDS011;745;48.586;10.032;2023-07-31T11:10:20;3.63;;;2.43;;
1507;SDS011;745;48.586;10.032;2023-07-31T11:12:23;2.97;;;2.40;;
1507;SDS011;745;48.586;10.032;2023-07-31T11:14:23;3.53;;;2.77;;
1507;SDS011;745;48.586;10.032;2023-07-31T11:16:24;5.67;;;2.80;;
1507;SDS011;745;48.586;10.032;2023-07-31T11:18:28;6.10;;;3.00;;
1507;SDS011;745;48.586;10.032;2023-07-31T11:20:32;2.93;;;2.63;;
1507;SDS011;745;48.586;10.032;2023-07-31T11:22:34;4.43;;;3.03;;
1507;SDS011;745;48.586;10.032;2023-07-31T11:24:35;4.00;;;2.67;;
1507;SDS011;745;48.586;10.032;2023-07-31T11:26:35;4.70;;;2.60;;
1507;SDS011;745;48.586;10.032;2023-07-31T11:28:35;3.03;;;2.77;;
1507;SDS011;745;48.586;10.032;2023-07-31T11:30:36;4.57;;;2.57;;
1507;SDS011;745;48.586;10.032;2023-07-31T11:32:37;6.47;;;2.80;;
1507;SDS011;745;48.586;10.032;2023-07-31T11:34:50;4.00;;;2.90;;
1507;SDS011;745;48.586;10.032;2023-07-31T11:36:54;4.20;;;2.97;;
1507;SDS011;745;48.586;10.032;2023-07-31T11:39:04;3.70;;;3.17;;
1507;SDS011;745;48.586;10.032;2023-07-31T11:41:05;4.23;;;3.63;;
1507;SDS011;745;48.586;10.032;2023-07-31T11:43:05;6.17;;;2.97;;
1507;SDS011;745;48.586;10.032;2023-07-31T11:45:06;3.73;;;3.00;;
1507;SDS011;745;48.586;10.032;2023-07-31T11:47:12;7.10;;;2.80;;
1507;SDS011;745;48.586;10.032;2023-07-31T11:49:12;6.33;;;3.50;;
1507;SDS011;745;48.586;10.032;2023-07-31T11:51:12;4.00;;;2.83;;
1507;SDS011;745;48.586;10.032;2023-07-31T11:53:14;4.77;;;3.33;;
1507;SDS011;745;48.586;10.032;2023-07-31T11:55:14;4.20;;;3.70;;
1507;SDS011;745;48.586;10.032;2023-07-31T11:57:15;3.23;;;2.93;;
1507;SDS011;745;48.586;10.032;2023-07-31T11:59:16;5.30;;;3.50;;
1507;SDS011;745;48.586;10.032;2023-07-31T12:01:18;6.43;;;3.40;;
1507;SDS011;745;48.586;10.032;2023-07-31T12:03:19;5.00;;;3.27;;
1507;SDS011;745;48.586;10.032;2023-07-31T12:05:20;3.40;;;3.10;;
1507;SDS011;745;48.586;10.032;2023-07-31T12:07:23;3.00;;;2.70;;
1507;SDS011;745;48.586;10.032;2023-07-31T12:09:24;5.43;;;3.67;;
1507;SDS011;745;48.586;10.032;2023-07-31T12:11:26;3.67;;;3.00;;
1507;SDS011;745;48.586;10.032;2023-07-31T12:13:26;4.27;;;3.23;;
1507;SDS011;745;48.586;10.032;2023-07-31T12:17:37;5.60;;;3.73;;
1507;SDS011;745;48.586;10.032;2023-07-31T12:19:38;6.00;;;3.53;;
1507;SDS011;745;48.586;10.032;2023-07-31T12:21:38;4.90;;;3.50;;
1507;SDS011;745;48.586;10.032;2023-07-31T12:23:38;4.03;;;3.00;;
1507;SDS011;745;48.586;10.032;2023-07-31T12:25:39;6.43;;;3.80;;
1507;SDS011;745;48.586;10.032;2023-07-31T12:27:39;5.77;;;3.17;;
1507;SDS011;745;48.586;10.032;2023-07-31T12:29:40;3.70;;;3.27;;
1507;SDS011;745;48.586;10.032;2023-07-31T12:31:41;3.63;;;3.10;;
1507;SDS011;745;48.586;10.032;2023-07-31T12:33:42;4.40;;;3.70;;
1507;SDS011;745;48.586;10.032;2023-07-31T12:35:44;5.73;;;3.97;;
1507;SDS011;745;48.586;10.032;2023-07-31T12:37:47;5.77;;;3.67;;
1507;SDS011;745;48.586;10.032;2023-07-31T12:39:47;5.30;;;3.90;;
1507;SDS011;745;48.586;10.032;2023-07-31T12:41:48;5.43;;;3.40;;
1507;SDS011;745;48.586;10.032;2023-07-31T12:43:48;4.30;;;3.37;;